createdAt,value
2019-04-19T00:01:49.228Z,8.60
2019-04-19T00:04:16.196Z,8.27
2019-04-19T00:06:53.220Z,8.90
2019-04-19T00:09:36.205Z,8.30
2019-04-19T00:12:07.169Z,9.00
2019-04-19T00:14:25.656Z,8.60
2019-04-19T00:16:59.567Z,7.90
2019-04-19T00:19:45.527Z,7.73
2019-04-19T00:22:22.263Z,7.30
2019-04-19T00:24:33.747Z,8.23
2019-04-19T00:27:04.081Z,7.50
2019-04-19T00:29:42.494Z,8.73
2019-04-19T00:32:23.154Z,8.60
2019-04-19T00:34:39.854Z,7.73
2019-04-19T00:37:12.053Z,7.33
2019-04-19T00:40:22.680Z,7.97
2019-04-19T00:43:12.746Z,7.00
2019-04-19T00:45:59.810Z,7.40
2019-04-19T00:48:27.076Z,7.30
2019-04-19T00:50:57.602Z,6.97
2019-04-19T00:53:25.262Z,8.53
2019-04-19T00:55:54.389Z,7.30
2019-04-19T00:58:24.398Z,7.87
2019-04-19T01:00:49.181Z,8.17
2019-04-19T01:03:26.594Z,7.43
2019-04-19T01:05:59.073Z,7.20
2019-04-19T01:08:25.941Z,8.13
2019-04-19T01:11:12.686Z,7.47
2019-04-19T01:13:47.720Z,8.17
2019-04-19T01:16:12.308Z,8.13
2019-04-19T01:18:44.438Z,8.30
2019-04-19T01:21:05.081Z,8.30
2019-04-19T01:23:44.280Z,8.57
2019-04-19T01:26:10.591Z,7.70
2019-04-19T01:28:40.052Z,7.87
2019-04-19T01:31:17.332Z,8.20
2019-04-19T01:33:45.175Z,8.07
2019-04-19T01:36:14.689Z,8.00
2019-04-19T01:38:51.309Z,8.70
2019-04-19T01:41:29.372Z,8.90
2019-04-19T01:44:20.516Z,8.10
2019-04-19T01:46:52.528Z,8.57
2019-04-19T01:49:22.534Z,8.20
2019-04-19T01:52:09.386Z,7.63
2019-04-19T01:54:35.866Z,8.27
2019-04-19T01:56:57.271Z,8.60
2019-04-19T01:59:31.092Z,8.50
2019-04-19T02:02:01.497Z,8.47
2019-04-19T02:04:30.949Z,8.70
2019-04-19T02:07:04.191Z,8.50
2019-04-19T02:09:48.659Z,8.63
2019-04-19T02:12:22.590Z,8.03
2019-04-19T02:14:48.248Z,8.80
2019-04-19T02:17:11.971Z,8.50
2019-04-19T02:19:47.967Z,8.60
2019-04-19T02:22:20.173Z,8.80
2019-04-19T02:24:50.289Z,8.50
2019-04-19T02:27:17.991Z,9.17
2019-04-19T02:29:52.778Z,8.93
2019-04-19T02:32:34.189Z,9.30
2019-04-19T02:37:51.431Z,9.40
2019-04-19T02:40:41.168Z,9.10
2019-04-19T02:42:50.872Z,8.43
2019-04-19T02:45:35.948Z,9.63
2019-04-19T02:47:57.847Z,10.10
2019-04-19T02:50:56.568Z,8.73
2019-04-19T02:53:01.851Z,9.10
2019-04-19T02:55:31.901Z,9.00
2019-04-19T02:58:14.485Z,9.77
2019-04-19T03:01:17.314Z,9.57
2019-04-19T03:03:52.631Z,8.93
2019-04-19T03:06:04.990Z,9.07
2019-04-19T03:08:16.594Z,9.67
2019-04-19T03:11:00.865Z,9.23
2019-04-19T03:13:31.331Z,10.67
2019-04-19T03:16:08.593Z,8.77
2019-04-19T03:18:38.694Z,9.60
2019-04-19T03:21:08.404Z,9.40
2019-04-19T03:23:36.609Z,9.00
2019-04-19T03:26:17.370Z,9.77
2019-04-19T03:28:39.655Z,9.40
2019-04-19T03:34:04.991Z,9.70
2019-04-19T03:36:23.108Z,10.03
2019-04-19T03:38:57.970Z,9.50
2019-04-19T03:41:46.731Z,9.40
2019-04-19T03:44:41.574Z,10.87
2019-04-19T03:47:18.243Z,10.00
2019-04-19T03:49:45.006Z,9.70
2019-04-19T03:52:20.126Z,10.10
2019-04-19T03:54:48.603Z,9.50
2019-04-19T03:57:18.658Z,9.17
2019-04-19T03:59:37.161Z,11.10
2019-04-19T04:02:07.822Z,9.90
2019-04-19T04:04:38.491Z,9.17
2019-04-19T04:07:15.486Z,10.57
2019-04-19T04:09:49.756Z,8.93
2019-04-19T04:12:36.979Z,10.07
2019-04-19T04:15:14.165Z,9.07
2019-04-19T04:17:33.563Z,8.70
2019-04-19T04:20:05.286Z,8.67
2019-04-19T04:22:38.995Z,9.70
2019-04-19T04:25:15.179Z,9.80
2019-04-19T04:27:52.385Z,10.20
2019-04-19T04:30:21.126Z,9.90
2019-04-19T04:32:56.959Z,10.07
2019-04-19T04:35:31.754Z,10.07
2019-04-19T04:37:58.567Z,9.60
2019-04-19T04:40:19.103Z,10.90
2019-04-19T04:43:03.912Z,9.70
2019-04-19T04:45:55.035Z,10.67
2019-04-19T04:48:26.629Z,10.17
2019-04-19T04:51:15.851Z,10.77
2019-04-19T04:53:55.196Z,10.37
2019-04-19T04:56:48.541Z,11.00
2019-04-19T04:59:11.407Z,11.87
2019-04-19T05:01:49.201Z,11.03
2019-04-19T05:04:23.828Z,11.20
2019-04-19T05:07:19.604Z,10.87
2019-04-19T05:09:32.175Z,10.70
2019-04-19T05:12:09.086Z,11.10
2019-04-19T05:14:33.939Z,11.10
2019-04-19T05:17:22.218Z,12.00
2019-04-19T05:19:46.738Z,11.40
2019-04-19T05:22:11.445Z,10.73
2019-04-19T05:24:51.430Z,10.43
2019-04-19T05:27:22.052Z,11.37
2019-04-19T05:29:37.652Z,12.13
2019-04-19T05:32:10.124Z,10.60
2019-04-19T05:34:51.096Z,12.00
2019-04-19T05:37:22.838Z,11.00
2019-04-19T05:40:07.981Z,11.37
2019-04-19T05:42:52.383Z,10.90
2019-04-19T05:45:50.395Z,11.33
2019-04-19T05:47:56.693Z,11.23
2019-04-19T05:50:44.592Z,10.80
2019-04-19T05:53:07.889Z,11.17
2019-04-19T05:55:24.007Z,12.30
2019-04-19T05:58:08.949Z,11.43
2019-04-19T06:00:43.656Z,11.20
2019-04-19T06:03:10.393Z,11.10
2019-04-19T06:05:58.873Z,10.90
2019-04-19T06:08:12.334Z,11.87
2019-04-19T06:10:44.477Z,11.90
2019-04-19T06:13:11.734Z,11.43
2019-04-19T06:15:59.772Z,11.20
2019-04-19T06:18:42.608Z,12.10
2019-04-19T06:23:53.885Z,10.60
2019-04-19T06:26:53.418Z,10.23
2019-04-19T06:29:06.216Z,10.50
2019-04-19T06:31:32.799Z,10.53
2019-04-19T06:33:57.950Z,10.90
2019-04-19T06:36:16.245Z,10.33
2019-04-19T06:38:46.578Z,10.40
2019-04-19T06:41:21.709Z,10.70
2019-04-19T06:43:58.922Z,10.30
2019-04-19T06:46:36.121Z,10.67
2019-04-19T06:49:02.645Z,10.53
2019-04-19T06:51:34.763Z,9.93
2019-04-19T06:54:02.508Z,9.50
2019-04-19T06:56:34.941Z,9.73
2019-04-19T06:59:14.089Z,9.47
2019-04-19T07:01:42.041Z,9.30
2019-04-19T07:04:06.890Z,9.50
2019-04-19T07:06:53.735Z,9.57
2019-04-19T07:09:39.498Z,8.80
2019-04-19T07:12:04.458Z,9.40
2019-04-19T07:14:19.669Z,9.23
2019-04-19T07:17:05.585Z,8.87
2019-04-19T07:19:41.192Z,8.40
2019-04-19T07:22:04.993Z,7.37
2019-04-19T07:24:44.344Z,8.67
2019-04-19T07:27:12.282Z,7.53
2019-04-19T07:29:25.517Z,7.63
2019-04-19T07:31:55.827Z,7.40
2019-04-19T07:34:41.970Z,7.87
2019-04-19T07:37:16.986Z,7.50
2019-04-19T07:39:56.641Z,7.00
2019-04-19T07:42:22.698Z,7.43
2019-04-19T07:44:46.001Z,7.50
2019-04-19T07:47:30.444Z,6.83
2019-04-19T07:50:03.910Z,7.33
2019-04-19T07:52:26.577Z,6.70
2019-04-19T07:55:00.529Z,7.20
2019-04-19T08:00:28.808Z,6.43
2019-04-19T08:03:01.693Z,6.23
2019-04-19T08:05:31.192Z,5.97
2019-04-19T08:08:13.882Z,6.20
2019-04-19T08:10:33.478Z,5.90
2019-04-19T08:13:14.002Z,6.10
2019-04-19T08:28:09.515Z,6.00
2019-04-19T08:30:36.222Z,6.10
2019-04-19T08:32:56.459Z,5.60
2019-04-19T08:35:27.839Z,6.43
2019-04-19T08:38:04.942Z,6.43
2019-04-19T08:40:50.317Z,6.30
2019-04-19T08:43:21.023Z,6.80
2019-04-19T08:45:48.655Z,5.67
2019-04-19T08:48:57.679Z,6.57
2019-04-19T08:51:44.881Z,6.57
2019-04-19T08:54:39.256Z,6.33
2019-04-19T08:56:54.578Z,5.70
2019-04-19T08:59:47.590Z,6.70
2019-04-19T09:02:10.826Z,6.30
2019-04-19T09:04:42.632Z,6.13
2019-04-19T09:10:00.262Z,6.73
2019-04-19T09:12:18.425Z,6.30
2019-04-19T09:14:51.953Z,6.43
2019-04-19T09:17:24.644Z,6.33
2019-04-19T09:22:25.408Z,6.73
2019-04-19T09:24:51.793Z,6.00
2019-04-19T09:27:37.307Z,5.93
2019-04-19T09:30:05.789Z,6.23
2019-04-19T09:32:23.005Z,5.30
2019-04-19T09:34:56.810Z,5.97
2019-04-19T09:37:32.613Z,5.63
2019-04-19T09:39:59.557Z,5.57
2019-04-19T09:42:36.633Z,5.97
2019-04-19T09:45:00.093Z,6.00
2019-04-19T09:47:29.166Z,6.53
2019-04-19T09:50:10.066Z,5.60
2019-04-19T09:52:56.832Z,6.00
2019-04-19T09:55:26.887Z,6.10
2019-04-19T09:58:04.377Z,6.00
2019-04-19T10:00:16.592Z,6.17
2019-04-19T10:02:48.856Z,5.77
2019-04-19T10:05:16.749Z,5.87
2019-04-19T10:07:48.133Z,5.27
2019-04-19T10:10:18.858Z,5.53
2019-04-19T10:12:50.228Z,6.40
2019-04-19T10:15:42.619Z,6.37
2019-04-19T10:18:14.625Z,5.77
2019-04-19T10:21:09.991Z,6.17
2019-04-19T10:23:37.970Z,5.73
2019-04-19T10:26:18.097Z,5.77
2019-04-19T10:28:48.799Z,5.00
2019-04-19T10:31:25.370Z,5.20
2019-04-19T10:33:59.503Z,5.50
2019-04-19T10:36:28.809Z,5.20
2019-04-19T10:38:59.436Z,4.87
2019-04-19T10:41:31.983Z,4.83
2019-04-19T10:44:10.598Z,4.87
2019-04-19T10:46:36.582Z,5.10
2019-04-19T10:49:14.301Z,4.70
2019-04-19T10:51:43.971Z,4.30
2019-04-19T10:54:14.905Z,4.70
2019-04-19T10:57:04.351Z,5.10
2019-04-19T10:59:34.755Z,5.47
2019-04-19T11:02:06.437Z,4.90
2019-04-19T11:04:36.839Z,4.80
2019-04-19T11:07:09.532Z,5.60
2019-04-19T11:09:39.895Z,5.50
2019-04-19T11:12:13.444Z,4.90
2019-04-19T11:14:44.149Z,4.70
2019-04-19T11:17:15.807Z,4.07
2019-04-19T11:20:00.992Z,4.30
2019-04-19T11:22:19.595Z,4.47
2019-04-19T11:24:50.072Z,4.67
2019-04-19T11:27:21.465Z,4.23
2019-04-19T11:29:56.406Z,4.17
2019-04-19T11:32:46.145Z,4.50
2019-04-19T11:35:17.442Z,4.20
2019-04-19T11:37:48.955Z,4.10
2019-04-19T11:40:21.435Z,3.53
2019-04-19T11:43:03.651Z,4.10
2019-04-19T11:45:33.890Z,3.50
2019-04-19T11:48:05.281Z,3.00
2019-04-19T11:50:35.886Z,3.30
2019-04-19T11:53:14.457Z,3.33
2019-04-19T11:55:48.582Z,2.80
2019-04-19T11:58:20.154Z,3.30
2019-04-19T12:01:07.927Z,3.03
2019-04-19T12:03:40.335Z,3.10
2019-04-19T12:06:12.174Z,2.97
2019-04-19T12:08:44.543Z,3.17
2019-04-19T12:11:17.965Z,3.13
2019-04-19T12:13:48.229Z,2.90
2019-04-19T12:16:19.131Z,3.20
2019-04-19T12:18:51.770Z,3.40
2019-04-19T12:21:23.188Z,2.83
2019-04-19T12:23:54.881Z,3.00
2019-04-19T12:26:25.179Z,2.77
2019-04-19T12:28:57.597Z,2.93
2019-04-19T12:31:28.034Z,2.33
2019-04-19T12:33:59.548Z,2.67
2019-04-19T12:36:30.991Z,2.70
2019-04-19T12:39:01.355Z,3.40
2019-04-19T12:41:34.095Z,2.90
2019-04-19T12:44:05.315Z,3.30
2019-04-19T12:46:35.471Z,3.17
2019-04-19T12:49:06.842Z,3.77
2019-04-19T12:51:37.171Z,2.87
2019-04-19T12:54:07.941Z,3.07
2019-04-19T12:56:38.281Z,3.50
2019-04-19T12:59:09.508Z,3.00
2019-04-19T13:02:06.011Z,2.83
2019-04-19T13:04:58.221Z,2.90
2019-04-19T13:07:29.550Z,2.83
2019-04-19T13:09:59.735Z,3.03
2019-04-19T13:12:30.697Z,2.50
2019-04-19T13:15:02.009Z,2.80
2019-04-19T13:17:33.912Z,3.30
2019-04-19T13:20:12.804Z,2.90
2019-04-19T13:22:36.571Z,2.60
2019-04-19T13:25:09.057Z,2.80
2019-04-19T13:27:45.689Z,2.57
2019-04-19T13:30:22.506Z,2.60
2019-04-19T13:32:45.515Z,3.00
2019-04-19T13:35:17.161Z,2.60
2019-04-19T13:38:05.540Z,3.97
2019-04-19T13:41:12.952Z,2.90
2019-04-19T13:43:44.909Z,2.70
2019-04-19T13:46:15.267Z,2.47
2019-04-19T13:48:46.331Z,2.57
2019-04-19T13:51:16.622Z,2.83
2019-04-19T13:53:47.438Z,2.27
2019-04-19T13:56:18.364Z,2.90
2019-04-19T13:58:49.758Z,2.90
2019-04-19T14:01:20.786Z,2.50
2019-04-19T14:03:51.131Z,2.67
2019-04-19T14:06:22.330Z,2.33
2019-04-19T14:08:53.367Z,1.90
2019-04-19T14:11:24.702Z,2.57
2019-04-19T14:13:57.638Z,2.47
2019-04-19T14:16:27.925Z,2.77
2019-04-19T14:18:58.471Z,2.50
2019-04-19T14:21:28.835Z,2.80
2019-04-19T14:23:59.647Z,2.40
2019-04-19T14:26:39.165Z,2.53
2019-04-19T14:29:03.291Z,2.50
2019-04-19T14:31:34.495Z,2.70
2019-04-19T14:34:04.710Z,2.70
2019-04-19T14:36:36.214Z,2.47
2019-04-19T14:39:09.009Z,2.33
2019-04-19T14:41:41.355Z,2.33
2019-04-19T14:44:11.743Z,2.83
2019-04-19T14:46:42.897Z,2.63
2019-04-19T14:49:13.288Z,3.17
2019-04-19T14:51:43.478Z,2.80
2019-04-19T14:54:14.707Z,2.60
2019-04-19T14:56:45.653Z,2.50
2019-04-19T14:59:16.020Z,2.30
2019-04-19T15:01:57.184Z,2.60
2019-04-19T15:04:39.127Z,2.90
2019-04-19T15:07:09.899Z,2.70
2019-04-19T15:09:41.522Z,2.50
2019-04-19T15:12:13.046Z,2.60
2019-04-19T15:14:44.725Z,2.93
2019-04-19T15:17:15.797Z,2.37
2019-04-19T15:19:48.283Z,2.93
2019-04-19T15:22:19.927Z,2.57
2019-04-19T15:24:52.949Z,2.23
2019-04-19T15:27:23.540Z,2.40
2019-04-19T15:29:54.717Z,2.40
2019-04-19T15:32:26.446Z,2.30
2019-04-19T15:34:57.952Z,2.57
2019-04-19T15:37:28.203Z,2.30
2019-04-19T15:39:58.433Z,2.50
2019-04-19T15:42:29.174Z,2.30
2019-04-19T15:45:00.688Z,2.77
2019-04-19T15:47:31.180Z,2.77
2019-04-19T15:50:02.305Z,2.50
2019-04-19T15:52:35.781Z,2.37
2019-04-19T15:55:06.520Z,2.57
2019-04-19T15:57:36.736Z,2.40
2019-04-19T16:00:11.730Z,3.73
2019-04-19T16:02:49.647Z,2.03
2019-04-19T16:05:46.223Z,1.90
2019-04-19T16:08:22.636Z,2.37
2019-04-19T16:11:11.037Z,2.13
2019-04-19T16:13:41.806Z,2.00
2019-04-19T16:16:12.152Z,2.13
2019-04-19T16:18:42.623Z,2.40
2019-04-19T16:21:24.956Z,2.30
2019-04-19T16:23:45.024Z,2.23
2019-04-19T16:26:17.038Z,2.20
2019-04-19T16:28:48.019Z,2.20
2019-04-19T16:31:18.393Z,2.17
2019-04-19T16:33:50.054Z,2.30
2019-04-19T16:36:21.158Z,2.67
2019-04-19T16:38:51.425Z,2.43
2019-04-19T16:41:22.785Z,2.23
2019-04-19T16:43:53.523Z,2.30
2019-04-19T16:46:27.267Z,2.03
2019-04-19T16:48:55.803Z,2.10
2019-04-19T16:51:35.456Z,2.00
2019-04-19T16:54:00.291Z,2.10
2019-04-19T16:56:30.592Z,1.97
2019-04-19T16:59:01.847Z,2.07
2019-04-19T17:01:32.736Z,1.93
2019-04-19T17:04:03.779Z,2.03
2019-04-19T17:06:34.100Z,2.10
2019-04-19T17:09:06.811Z,2.10
2019-04-19T17:11:39.693Z,2.30
2019-04-19T17:14:12.197Z,2.60
2019-04-19T17:17:07.214Z,2.40
2019-04-19T17:20:06.784Z,2.70
2019-04-19T17:22:40.943Z,2.07
2019-04-19T17:25:16.984Z,2.00
2019-04-19T17:27:49.113Z,2.30
2019-04-19T17:30:33.550Z,2.30
2019-04-19T17:33:04.295Z,2.90
2019-04-19T17:35:36.352Z,3.13
2019-04-19T17:38:07.941Z,3.30
2019-04-19T17:40:38.540Z,3.17
2019-04-19T17:43:09.760Z,2.90
2019-04-19T17:45:40.095Z,3.20
2019-04-19T17:48:12.409Z,3.53
2019-04-19T17:50:43.926Z,3.33
2019-04-19T17:53:15.003Z,3.40
2019-04-19T17:55:49.864Z,3.27
2019-04-19T17:58:17.365Z,4.00
2019-04-19T18:00:48.943Z,4.10
2019-04-19T18:03:20.476Z,3.23
2019-04-19T18:05:52.005Z,3.63
2019-04-19T18:08:28.976Z,3.13
2019-04-19T18:10:57.462Z,2.97
2019-04-19T18:13:26.590Z,3.17
2019-04-19T18:15:58.692Z,3.93
2019-04-19T18:18:36.658Z,4.43
2019-04-19T18:21:02.290Z,3.77
2019-04-19T18:23:43.034Z,4.10
2019-04-19T18:26:05.071Z,4.63
2019-04-19T18:28:41.353Z,3.40
2019-04-19T18:31:11.079Z,4.00
2019-04-19T18:33:57.156Z,3.80
2019-04-19T18:36:24.467Z,4.53
2019-04-19T18:38:52.291Z,4.70
2019-04-19T18:41:27.380Z,4.73
2019-04-19T18:44:09.103Z,5.57
2019-04-19T18:46:33.180Z,5.40
2019-04-19T18:49:03.529Z,4.63
2019-04-19T18:51:39.662Z,4.37
2019-04-19T18:54:15.393Z,4.57
2019-04-19T18:56:38.146Z,4.10
2019-04-19T18:59:16.555Z,5.00
2019-04-19T19:01:43.434Z,4.70
2019-04-19T19:04:20.156Z,5.27
2019-04-19T19:06:48.052Z,5.10
2019-04-19T19:09:21.247Z,4.47
2019-04-19T19:12:00.495Z,4.27
2019-04-19T19:14:23.509Z,4.70
2019-04-19T19:16:57.812Z,5.03
2019-04-19T19:19:30.495Z,4.60
2019-04-19T19:22:00.133Z,3.53
2019-04-19T19:24:53.261Z,4.63
2019-04-19T19:27:10.401Z,4.20
2019-04-19T19:29:36.082Z,4.07
2019-04-19T19:32:10.351Z,4.20
2019-04-19T19:34:39.414Z,4.37
2019-04-19T19:37:12.759Z,4.10
2019-04-19T19:39:53.986Z,4.67
2019-04-19T19:42:54.721Z,4.60
2019-04-19T19:45:02.919Z,4.80
2019-04-19T19:48:13.256Z,4.90
2019-04-19T19:50:41.951Z,4.93
2019-04-19T19:53:07.664Z,4.70
2019-04-19T19:55:32.406Z,5.20
2019-04-19T19:57:59.422Z,5.53
2019-04-19T20:00:34.878Z,5.27
2019-04-19T20:03:06.939Z,5.30
2019-04-19T20:05:31.708Z,5.30
2019-04-19T20:07:59.552Z,5.37
2019-04-19T20:10:34.693Z,6.30
2019-04-19T20:13:07.841Z,6.17
2019-04-19T20:15:38.120Z,5.97
2019-04-19T20:18:06.510Z,6.10
2019-04-19T20:20:40.571Z,6.20
2019-04-19T20:23:11.311Z,6.63
2019-04-19T20:25:47.592Z,6.93
2019-04-19T20:28:26.485Z,6.40
2019-04-19T20:31:00.771Z,7.10
2019-04-19T20:33:35.314Z,6.27
2019-04-19T20:36:30.824Z,6.87
2019-04-19T20:39:01.072Z,8.10
2019-04-19T20:41:34.879Z,7.10
2019-04-19T20:44:18.074Z,8.03
2019-04-19T20:46:34.933Z,6.17
2019-04-19T20:49:08.136Z,5.67
2019-04-19T20:51:50.605Z,5.20
2019-04-19T20:54:41.226Z,5.90
2019-04-19T20:57:19.622Z,5.43
2019-04-19T20:59:42.033Z,4.97
2019-04-19T21:02:18.555Z,5.87
2019-04-19T21:04:49.120Z,5.80
2019-04-19T21:07:14.996Z,5.43
2019-04-19T21:09:43.423Z,5.77
2019-04-19T21:12:17.037Z,5.23
2019-04-19T21:14:46.999Z,6.23
2019-04-19T21:17:18.607Z,5.40
2019-04-19T21:19:51.546Z,5.97
2019-04-19T21:22:26.057Z,5.17
2019-04-19T21:25:05.674Z,5.27
2019-04-19T21:27:28.459Z,5.53
2019-04-19T21:30:00.582Z,5.40
2019-04-19T21:32:32.318Z,4.97
2019-04-19T21:35:07.362Z,5.27
2019-04-19T21:37:37.785Z,5.63
2019-04-19T21:40:06.102Z,5.67
2019-04-19T21:42:42.740Z,5.47
2019-04-19T21:45:09.719Z,5.33
2019-04-19T21:47:46.753Z,5.40
2019-04-19T21:50:13.121Z,5.87
2019-04-19T21:52:52.581Z,5.03
2019-04-19T21:55:25.444Z,5.47
2019-04-19T21:57:47.822Z,5.10
2019-04-19T22:00:45.370Z,5.37
2019-04-19T22:03:21.979Z,5.33
2019-04-19T22:05:49.375Z,5.23
2019-04-19T22:08:28.921Z,5.47
2019-04-19T22:10:54.168Z,5.00
2019-04-19T22:13:34.049Z,5.47
2019-04-19T22:15:58.713Z,5.30
2019-04-19T22:18:32.256Z,5.23
2019-04-19T22:21:03.746Z,5.70
2019-04-19T22:23:36.033Z,5.60
2019-04-19T22:26:15.369Z,5.53
2019-04-19T22:28:37.447Z,5.50
2019-04-19T22:31:09.169Z,5.97
2019-04-19T22:33:40.773Z,6.87
2019-04-19T22:36:11.031Z,6.20
2019-04-19T22:38:43.577Z,6.17
2019-04-19T22:41:17.094Z,5.77
2019-04-19T22:43:44.904Z,5.93
2019-04-19T22:46:17.147Z,6.30
2019-04-19T22:48:54.099Z,5.30
2019-04-19T22:51:20.422Z,5.87
2019-04-19T22:53:52.659Z,5.33
2019-04-19T22:56:31.438Z,6.37
2019-04-19T22:58:58.986Z,5.80
2019-04-19T23:01:55.551Z,5.87
2019-04-19T23:04:23.912Z,6.30
2019-04-19T23:06:58.155Z,5.83
2019-04-19T23:09:24.792Z,6.10
2019-04-19T23:11:55.446Z,6.13
2019-04-19T23:14:46.288Z,5.80
2019-04-19T23:17:24.652Z,6.60
2019-04-19T23:19:53.349Z,6.00
2019-04-19T23:22:30.820Z,6.10
2019-04-19T23:24:58.526Z,6.50
2019-04-19T23:27:36.801Z,6.63
2019-04-19T23:30:17.320Z,6.20
2019-04-19T23:32:44.005Z,6.30
2019-04-19T23:35:16.348Z,5.90
2019-04-19T23:37:47.727Z,6.40
2019-04-19T23:40:22.605Z,6.63
2019-04-19T23:42:51.979Z,6.17
2019-04-19T23:45:26.481Z,6.60
2019-04-19T23:47:54.104Z,6.00
2019-04-19T23:50:27.953Z,6.10
2019-04-19T23:52:59.024Z,6.37
2019-04-19T23:55:28.689Z,7.63
2019-04-19T23:57:59.911Z,6.70
